createdAt,value
2023-02-16T00:00:11.785Z,25.63
2023-02-16T00:02:38.130Z,25.33
2023-02-16T00:05:04.390Z,25.48
2023-02-16T00:07:30.670Z,25.73
2023-02-16T00:09:56.936Z,25.42
2023-02-16T00:12:23.205Z,24.95
2023-02-16T00:14:49.486Z,24.42
2023-02-16T00:17:15.740Z,24.58
2023-02-16T00:19:42.067Z,24.12
2023-02-16T00:22:08.331Z,23.77
2023-02-16T00:24:34.620Z,24.11
2023-02-16T00:27:00.900Z,23.58
2023-02-16T00:29:27.179Z,23.60
2023-02-16T00:31:53.535Z,24.77
2023-02-16T00:34:19.797Z,24.97
2023-02-16T00:36:46.078Z,24.18
2023-02-16T00:39:12.542Z,23.82
2023-02-16T00:41:38.846Z,24.64
2023-02-16T00:44:05.126Z,24.75
2023-02-16T00:46:31.463Z,24.27
2023-02-16T00:48:57.803Z,23.92
2023-02-16T00:51:26.285Z,25.52
2023-02-16T00:53:52.851Z,25.88
2023-02-16T00:56:19.111Z,25.69
2023-02-16T00:58:45.366Z,24.73
2023-02-16T01:01:11.650Z,25.71
2023-02-16T01:03:37.956Z,25.63
2023-02-16T01:06:04.222Z,24.85
2023-02-16T01:08:30.505Z,24.26
2023-02-16T01:10:56.785Z,25.39
2023-02-16T01:13:23.059Z,25.79
2023-02-16T01:15:49.335Z,25.10
2023-02-16T01:18:15.671Z,26.21
2023-02-16T01:20:41.943Z,26.24
2023-02-16T01:23:08.212Z,25.79
2023-02-16T01:25:34.491Z,26.49
2023-02-16T01:28:00.778Z,25.78
2023-02-16T01:30:27.089Z,25.04
2023-02-16T01:32:53.397Z,25.33
2023-02-16T01:35:19.669Z,23.93
2023-02-16T01:37:45.919Z,23.92
2023-02-16T01:40:12.196Z,22.58
2023-02-16T01:42:38.469Z,23.02
2023-02-16T01:45:04.844Z,21.89
2023-02-16T01:47:31.109Z,21.84
2023-02-16T01:49:57.377Z,20.91
2023-02-16T01:52:23.628Z,21.55
2023-02-16T01:54:49.904Z,21.75
2023-02-16T01:57:16.158Z,22.45
2023-02-16T01:59:42.410Z,22.94
2023-02-16T02:02:08.666Z,23.26
2023-02-16T02:04:34.919Z,23.64
2023-02-16T02:07:01.183Z,23.10
2023-02-16T02:09:27.433Z,23.62
2023-02-16T02:11:53.709Z,24.19
2023-02-16T02:14:19.976Z,24.21
2023-02-16T02:16:46.241Z,25.09
2023-02-16T02:19:12.501Z,25.16
2023-02-16T02:21:38.806Z,25.22
2023-02-16T02:24:05.071Z,25.65
2023-02-16T02:26:31.342Z,26.07
2023-02-16T02:28:57.604Z,25.45
2023-02-16T02:31:23.960Z,24.92
2023-02-16T02:33:50.259Z,24.97
2023-02-16T02:36:16.504Z,24.32
2023-02-16T02:38:42.792Z,25.21
2023-02-16T02:41:09.051Z,26.50
2023-02-16T02:43:35.312Z,26.92
2023-02-16T02:46:01.574Z,28.10
2023-02-16T02:48:27.846Z,27.17
2023-02-16T02:50:54.117Z,26.76
2023-02-16T02:53:20.387Z,25.63
2023-02-16T02:55:46.630Z,25.04
2023-02-16T02:58:12.922Z,26.88
2023-02-16T03:00:39.351Z,26.91
2023-02-16T03:03:05.622Z,26.96
2023-02-16T03:05:31.890Z,26.30
2023-02-16T03:07:58.147Z,25.66
2023-02-16T03:10:24.410Z,25.97
2023-02-16T03:12:50.678Z,26.64
2023-02-16T03:15:16.949Z,27.69
2023-02-16T03:17:43.196Z,27.38
2023-02-16T03:20:09.439Z,27.89
2023-02-16T03:22:35.682Z,27.10
2023-02-16T03:25:01.964Z,27.46
2023-02-16T03:27:28.245Z,26.37
2023-02-16T03:29:54.645Z,27.39
2023-02-16T03:32:20.928Z,27.16
2023-02-16T03:34:47.193Z,28.07
2023-02-16T03:37:13.466Z,27.80
2023-02-16T03:39:39.751Z,28.33
2023-02-16T03:42:06.003Z,26.81
2023-02-16T03:44:32.277Z,26.77
2023-02-16T03:46:58.550Z,26.94
2023-02-16T03:49:24.816Z,26.72
2023-02-16T03:51:51.089Z,27.42
2023-02-16T03:54:17.377Z,27.77
2023-02-16T03:56:43.652Z,27.98
2023-02-16T03:59:09.943Z,27.39
2023-02-16T04:01:36.194Z,27.29
2023-02-16T04:04:02.490Z,26.88
2023-02-16T04:06:28.775Z,26.63
2023-02-16T04:08:55.048Z,26.13
2023-02-16T04:11:21.302Z,25.79
2023-02-16T04:13:47.546Z,24.40
2023-02-16T04:16:13.853Z,23.41
2023-02-16T04:18:40.114Z,22.72
2023-02-16T04:21:06.355Z,22.05
2023-02-16T04:23:32.615Z,21.65
2023-02-16T04:25:58.890Z,20.73
2023-02-16T04:28:25.158Z,20.15
2023-02-16T04:30:51.526Z,21.22
2023-02-16T04:33:17.813Z,20.42
2023-02-16T04:35:44.064Z,19.03
2023-02-16T04:38:10.329Z,17.95
2023-02-16T04:40:36.601Z,18.97
2023-02-16T04:43:02.877Z,18.87
2023-02-16T04:45:29.136Z,17.17
2023-02-16T04:47:55.383Z,15.58
2023-02-16T04:50:21.649Z,15.39
2023-02-16T04:52:47.933Z,15.48
2023-02-16T04:55:14.199Z,15.44
2023-02-16T04:57:40.470Z,15.17
2023-02-16T05:00:06.726Z,14.99
2023-02-16T05:02:32.973Z,15.85
2023-02-16T05:04:59.255Z,14.81
2023-02-16T05:07:25.517Z,14.82
2023-02-16T05:09:51.772Z,14.36
2023-02-16T05:12:18.034Z,13.80
2023-02-16T05:14:44.320Z,14.30
2023-02-16T05:17:10.591Z,15.62
2023-02-16T05:19:36.863Z,16.03
2023-02-16T05:22:03.145Z,15.63
2023-02-16T05:24:29.390Z,15.63
2023-02-16T05:26:55.657Z,15.95
2023-02-16T05:29:21.928Z,15.96
2023-02-16T05:31:48.276Z,15.57
2023-02-16T05:34:14.585Z,15.98
2023-02-16T05:36:40.837Z,15.74
2023-02-16T05:39:07.097Z,15.32
2023-02-16T05:41:33.408Z,15.63
2023-02-16T05:43:59.704Z,15.59
2023-02-16T05:46:26.018Z,16.60
2023-02-16T05:48:52.288Z,15.58
2023-02-16T05:51:18.537Z,15.56
2023-02-16T05:53:44.794Z,16.58
2023-02-16T05:56:11.069Z,16.52
2023-02-16T05:58:37.338Z,16.37
2023-02-16T06:01:03.852Z,17.59
2023-02-16T06:03:30.359Z,17.51
2023-02-16T06:05:56.645Z,18.11
2023-02-16T06:08:22.922Z,18.21
2023-02-16T06:10:49.175Z,18.40
2023-02-16T06:13:15.430Z,18.89
2023-02-16T06:15:41.725Z,15.90
2023-02-16T06:18:08.105Z,17.66
2023-02-16T06:20:34.390Z,17.23
2023-02-16T06:23:00.657Z,14.92
2023-02-16T06:25:27.032Z,17.72
2023-02-16T06:27:53.313Z,18.14
2023-02-16T06:30:19.705Z,19.22
2023-02-16T06:32:46.013Z,19.91
2023-02-16T06:35:12.285Z,19.25
2023-02-16T06:37:38.557Z,20.39
2023-02-16T06:40:04.906Z,21.03
2023-02-16T06:42:31.180Z,21.64
2023-02-16T06:44:57.444Z,20.90
2023-02-16T06:47:23.715Z,22.72
2023-02-16T06:49:49.988Z,30.10
2023-02-16T06:52:16.461Z,22.92
2023-02-16T06:54:42.743Z,22.56
2023-02-16T06:57:08.990Z,22.04
2023-02-16T06:59:35.262Z,21.82
2023-02-16T07:02:01.512Z,22.51
2023-02-16T07:04:27.761Z,21.95
2023-02-16T07:06:54.024Z,22.16
2023-02-16T07:09:20.278Z,22.95
2023-02-16T07:11:46.526Z,22.83
2023-02-16T07:14:12.798Z,22.16
2023-02-16T07:16:39.068Z,23.16
2023-02-16T07:19:05.354Z,22.26
2023-02-16T07:21:31.636Z,22.23
2023-02-16T07:23:57.922Z,23.20
2023-02-16T07:26:24.191Z,22.64
2023-02-16T07:28:50.486Z,22.99
2023-02-16T07:31:16.828Z,22.73
2023-02-16T07:33:43.147Z,23.23
2023-02-16T07:36:09.414Z,24.08
2023-02-16T07:38:35.686Z,24.98
2023-02-16T07:41:02.184Z,24.92
2023-02-16T07:43:28.738Z,25.14
2023-02-16T07:45:55.104Z,26.32
2023-02-16T07:48:21.365Z,26.19
2023-02-16T07:50:47.629Z,24.97
2023-02-16T07:53:13.881Z,26.65
2023-02-16T07:55:40.133Z,29.21
2023-02-16T07:58:06.379Z,29.04
2023-02-16T08:00:32.647Z,29.46
2023-02-16T08:02:59.005Z,29.12
2023-02-16T08:05:25.342Z,28.50
2023-02-16T08:07:51.613Z,26.85
2023-02-16T08:10:17.888Z,27.34
2023-02-16T08:12:44.150Z,30.43
2023-02-16T08:15:10.406Z,31.77
2023-02-16T08:17:36.656Z,31.48
2023-02-16T08:20:02.920Z,31.66
2023-02-16T08:22:29.174Z,31.56
2023-02-16T08:24:55.455Z,32.19
2023-02-16T08:27:21.721Z,31.90
2023-02-16T08:29:47.995Z,32.41
2023-02-16T08:32:14.312Z,32.34
2023-02-16T08:34:43.222Z,33.91
2023-02-16T08:37:09.710Z,32.66
2023-02-16T08:39:35.990Z,32.48
2023-02-16T08:42:02.256Z,31.75
2023-02-16T08:44:28.565Z,31.62
2023-02-16T08:46:54.841Z,30.96
2023-02-16T08:49:21.089Z,29.68
2023-02-16T08:51:47.359Z,29.73
2023-02-16T08:54:13.630Z,30.00
2023-02-16T08:56:39.896Z,30.43
2023-02-16T08:59:06.164Z,29.92
2023-02-16T09:01:32.525Z,30.03
2023-02-16T09:03:58.826Z,30.04
2023-02-16T09:06:25.089Z,29.60
2023-02-16T09:08:51.344Z,29.60
2023-02-16T09:11:17.616Z,29.25
2023-02-16T09:13:44.175Z,30.67
2023-02-16T09:16:10.455Z,30.35
2023-02-16T09:18:36.746Z,29.57
2023-02-16T09:21:03.016Z,29.57
2023-02-16T09:23:29.288Z,29.63
2023-02-16T09:25:55.564Z,29.59
2023-02-16T09:28:21.822Z,28.85
2023-02-16T09:30:48.099Z,28.22
2023-02-16T09:33:14.401Z,27.59
2023-02-16T09:35:40.659Z,27.59
2023-02-16T09:38:06.938Z,28.42
2023-02-16T09:40:33.211Z,28.45
2023-02-16T09:42:59.468Z,28.26
2023-02-16T09:45:25.753Z,28.28
2023-02-16T09:47:52.029Z,27.75
2023-02-16T09:50:23.619Z,28.27
2023-02-16T09:52:53.869Z,27.38
2023-02-16T09:55:20.131Z,27.72
2023-02-16T09:57:46.677Z,28.79
2023-02-16T10:00:13.009Z,28.97
2023-02-16T10:02:39.304Z,28.30
2023-02-16T10:05:05.607Z,28.12
2023-02-16T10:07:31.856Z,27.53
2023-02-16T10:09:58.129Z,27.05
2023-02-16T10:12:24.388Z,27.38
2023-02-16T10:14:50.648Z,25.97
2023-02-16T10:17:16.923Z,26.24
2023-02-16T10:19:43.178Z,23.94
2023-02-16T10:22:09.445Z,24.62
2023-02-16T10:24:35.726Z,24.24
2023-02-16T10:27:02.010Z,24.20
2023-02-16T10:29:28.265Z,24.21
2023-02-16T10:31:54.606Z,24.97
2023-02-16T10:34:23.039Z,25.67
2023-02-16T10:36:49.602Z,25.44
2023-02-16T10:39:15.855Z,25.23
2023-02-16T10:41:42.102Z,25.02
2023-02-16T10:44:08.352Z,21.26
2023-02-16T10:46:34.697Z,18.73
2023-02-16T10:49:01.017Z,18.76
2023-02-16T10:51:27.280Z,17.88
2023-02-16T10:53:53.536Z,17.57
2023-02-16T10:56:19.792Z,17.68
2023-02-16T10:58:46.147Z,16.84
2023-02-16T11:01:12.455Z,17.04
2023-02-16T11:03:38.729Z,17.31
2023-02-16T11:06:05.419Z,16.06
2023-02-16T11:08:31.866Z,15.59
2023-02-16T11:10:58.122Z,15.56
2023-02-16T11:13:24.383Z,13.59
2023-02-16T11:15:50.733Z,12.65
2023-02-16T11:18:17.049Z,13.31
2023-02-16T11:20:43.312Z,13.27
2023-02-16T11:23:09.589Z,13.23
2023-02-16T11:25:35.839Z,13.50
2023-02-16T11:28:02.115Z,14.00
2023-02-16T11:30:28.441Z,15.25
2023-02-16T11:32:54.712Z,15.65
2023-02-16T11:35:20.986Z,16.00
2023-02-16T11:37:47.265Z,16.36
2023-02-16T11:40:13.567Z,17.06
2023-02-16T11:42:39.843Z,18.71
2023-02-16T11:45:06.102Z,19.54
2023-02-16T11:47:32.659Z,19.74
2023-02-16T11:49:58.986Z,18.69
2023-02-16T11:52:25.263Z,18.99
2023-02-16T11:54:51.528Z,18.68
2023-02-16T11:57:17.801Z,18.37
2023-02-16T11:59:44.078Z,19.36
2023-02-16T12:02:10.364Z,18.24
2023-02-16T12:04:36.690Z,18.50
2023-02-16T12:07:02.958Z,17.77
2023-02-16T12:09:30.999Z,18.15
2023-02-16T12:11:57.395Z,17.81
2023-02-16T12:14:23.666Z,17.77
2023-02-16T12:16:49.929Z,16.65
2023-02-16T12:19:16.210Z,16.40
2023-02-16T12:21:42.450Z,16.42
2023-02-16T12:24:08.716Z,16.63
2023-02-16T12:26:35.012Z,15.97
2023-02-16T12:29:01.271Z,16.24
2023-02-16T12:31:27.603Z,15.19
2023-02-16T12:33:53.950Z,15.46
2023-02-16T12:36:20.260Z,14.40
2023-02-16T12:38:46.520Z,13.99
2023-02-16T12:41:12.770Z,12.97
2023-02-16T12:43:39.138Z,13.11
2023-02-16T12:46:05.756Z,13.43
2023-02-16T12:48:32.237Z,13.23
2023-02-16T12:50:58.507Z,13.52
2023-02-16T12:53:24.815Z,12.80
2023-02-16T12:55:51.149Z,12.09
2023-02-16T12:58:17.422Z,12.99
2023-02-16T13:00:43.757Z,14.26
2023-02-16T13:03:10.086Z,13.49
2023-02-16T13:05:36.394Z,14.60
2023-02-16T13:08:02.670Z,14.25
2023-02-16T13:10:28.919Z,13.55
2023-02-16T13:12:55.188Z,12.26
2023-02-16T13:15:21.461Z,12.20
2023-02-16T13:17:47.738Z,12.46
2023-02-16T13:20:14.012Z,11.96
2023-02-16T13:22:40.325Z,11.59
2023-02-16T13:25:06.667Z,11.07
2023-02-16T13:27:32.938Z,9.65
2023-02-16T13:29:59.312Z,10.28
2023-02-16T13:32:25.585Z,9.89
2023-02-16T13:34:51.845Z,8.74
2023-02-16T13:37:18.143Z,9.74
2023-02-16T13:39:44.410Z,9.75
2023-02-16T13:42:10.777Z,9.72
2023-02-16T13:44:37.025Z,10.70
2023-02-16T13:47:03.298Z,9.19
2023-02-16T13:49:29.559Z,9.14
2023-02-16T13:51:55.874Z,9.48
2023-02-16T13:54:22.118Z,9.43
2023-02-16T13:56:48.380Z,8.73
2023-02-16T13:59:14.652Z,8.11
2023-02-16T14:01:40.927Z,8.71
2023-02-16T14:04:07.166Z,7.94
2023-02-16T14:06:33.418Z,7.92
2023-02-16T14:08:59.691Z,8.76
2023-02-16T14:11:25.954Z,8.38
2023-02-16T14:13:52.216Z,8.56
2023-02-16T14:16:18.543Z,8.53
2023-02-16T14:18:44.837Z,7.89
2023-02-16T14:21:11.087Z,7.36
2023-02-16T14:23:37.335Z,7.58
2023-02-16T14:26:03.892Z,7.89
2023-02-16T14:28:30.289Z,7.26
2023-02-16T14:30:56.731Z,7.61
2023-02-16T14:33:23.002Z,8.01
2023-02-16T14:35:49.258Z,7.96
2023-02-16T14:38:15.512Z,7.72
2023-02-16T14:40:41.771Z,8.17
2023-02-16T14:43:08.017Z,7.92
2023-02-16T14:45:34.282Z,7.95
2023-02-16T14:48:00.536Z,8.23
2023-02-16T14:50:26.795Z,8.69
2023-02-16T14:52:53.046Z,8.84
2023-02-16T14:55:19.308Z,8.72
2023-02-16T14:57:45.578Z,8.58
2023-02-16T15:00:11.918Z,8.42
2023-02-16T15:02:38.197Z,8.31
2023-02-16T15:05:04.464Z,8.78
2023-02-16T15:07:30.706Z,9.14
2023-02-16T15:09:56.962Z,8.93
2023-02-16T15:12:23.231Z,8.70
2023-02-16T15:14:49.514Z,8.88
2023-02-16T15:17:15.857Z,8.88
2023-02-16T15:19:42.102Z,8.68
2023-02-16T15:22:08.362Z,8.48
2023-02-16T15:24:34.639Z,8.10
2023-02-16T15:27:00.905Z,8.21
2023-02-16T15:29:27.180Z,8.27
2023-02-16T15:31:53.542Z,8.20
2023-02-16T15:34:19.874Z,8.08
2023-02-16T15:36:46.140Z,8.13
2023-02-16T15:39:12.407Z,7.86
2023-02-16T15:41:38.650Z,8.17
2023-02-16T15:44:04.898Z,7.80
2023-02-16T15:46:31.201Z,7.92
2023-02-16T15:48:57.486Z,7.68
2023-02-16T15:51:23.746Z,7.67
2023-02-16T15:53:49.994Z,7.62
2023-02-16T15:56:16.259Z,7.65
2023-02-16T15:58:42.531Z,7.50
2023-02-16T16:01:08.802Z,7.29
2023-02-16T16:03:35.061Z,7.37
2023-02-16T16:06:01.307Z,7.47
2023-02-16T16:08:27.554Z,7.80
2023-02-16T16:10:53.817Z,7.89
2023-02-16T16:13:20.161Z,8.17
2023-02-16T16:15:46.425Z,8.00
2023-02-16T16:18:12.689Z,7.70
2023-02-16T16:20:38.949Z,7.48
2023-02-16T16:23:05.239Z,7.58
2023-02-16T16:25:31.520Z,7.50
2023-02-16T16:27:57.789Z,7.99
2023-02-16T16:30:24.105Z,7.98
2023-02-16T16:32:50.384Z,7.77
2023-02-16T16:35:16.627Z,7.64
2023-02-16T16:37:42.900Z,7.52
2023-02-16T16:40:09.157Z,7.75
2023-02-16T16:42:35.414Z,7.88
2023-02-16T16:45:01.672Z,7.93
2023-02-16T16:47:27.925Z,8.06
2023-02-16T16:49:54.191Z,8.23
2023-02-16T16:52:20.439Z,8.38
2023-02-16T16:54:46.685Z,8.18
2023-02-16T16:57:12.938Z,7.90
2023-02-16T16:59:39.197Z,8.11
2023-02-16T17:02:05.465Z,7.96
2023-02-16T17:04:31.712Z,7.82
2023-02-16T17:06:57.995Z,8.09
2023-02-16T17:09:24.240Z,8.55
2023-02-16T17:11:50.488Z,10.62
2023-02-16T17:14:16.755Z,11.25
2023-02-16T17:16:43.062Z,10.45
2023-02-16T17:19:09.348Z,11.05
2023-02-16T17:21:35.608Z,11.56
2023-02-16T17:24:01.875Z,12.97
2023-02-16T17:26:28.153Z,11.61
2023-02-16T17:28:54.411Z,10.61
2023-02-16T17:31:20.782Z,9.27
2023-02-16T17:33:47.133Z,8.94
2023-02-16T17:36:13.383Z,8.40
2023-02-16T17:38:39.659Z,8.66
2023-02-16T17:41:05.918Z,8.74
2023-02-16T17:43:32.165Z,8.63
2023-02-16T17:45:58.475Z,8.27
2023-02-16T17:48:25.711Z,9.15
2023-02-16T17:50:52.734Z,8.96
2023-02-16T17:53:19.123Z,9.36
2023-02-16T17:55:45.423Z,9.27
2023-02-16T17:58:11.683Z,9.87
2023-02-16T18:00:37.951Z,9.80
2023-02-16T18:03:04.191Z,9.44
2023-02-16T18:05:30.436Z,9.58
2023-02-16T18:07:56.704Z,9.57
2023-02-16T18:10:22.955Z,10.13
2023-02-16T18:12:49.223Z,9.85
2023-02-16T18:15:15.479Z,10.36
2023-02-16T18:17:41.755Z,10.61
2023-02-16T18:20:08.031Z,11.21
2023-02-16T18:22:34.291Z,11.29
2023-02-16T18:25:00.571Z,11.31
2023-02-16T18:27:29.326Z,11.82
2023-02-16T18:29:55.809Z,11.78
2023-02-16T18:32:22.133Z,12.13
2023-02-16T18:34:48.394Z,11.85
2023-02-16T18:37:14.662Z,12.12
2023-02-16T18:39:40.919Z,12.68
2023-02-16T18:42:07.165Z,12.08
2023-02-16T18:44:33.429Z,12.22
2023-02-16T18:46:59.690Z,12.24
2023-02-16T18:49:25.939Z,12.01
2023-02-16T18:51:52.196Z,12.58
2023-02-16T18:54:18.451Z,12.42
2023-02-16T18:56:44.721Z,12.54
2023-02-16T18:59:10.974Z,12.21
2023-02-16T19:01:37.254Z,11.25
2023-02-16T19:04:03.610Z,11.70
2023-02-16T19:06:29.927Z,11.21
2023-02-16T19:08:56.198Z,11.49
2023-02-16T19:11:22.478Z,12.26
2023-02-16T19:13:48.735Z,12.81
2023-02-16T19:16:15.036Z,12.89
2023-02-16T19:18:41.342Z,12.26
2023-02-16T19:21:07.603Z,12.98
2023-02-16T19:23:33.865Z,13.24
2023-02-16T19:26:00.176Z,12.92
2023-02-16T19:28:26.462Z,12.44
2023-02-16T19:30:52.767Z,12.32
2023-02-16T19:33:19.068Z,11.49
2023-02-16T19:35:45.326Z,11.14
2023-02-16T19:38:11.574Z,11.10
2023-02-16T19:40:37.840Z,10.23
2023-02-16T19:43:04.110Z,10.30
2023-02-16T19:45:30.359Z,10.15
2023-02-16T19:47:56.626Z,10.40
2023-02-16T19:50:22.889Z,11.65
2023-02-16T19:52:49.151Z,11.77
2023-02-16T19:55:15.437Z,12.75
2023-02-16T19:57:41.708Z,13.45
2023-02-16T20:00:07.980Z,13.59
2023-02-16T20:02:34.263Z,13.54
2023-02-16T20:05:00.533Z,13.49
2023-02-16T20:07:26.788Z,13.37
2023-02-16T20:09:53.034Z,12.95
2023-02-16T20:12:19.284Z,13.63
2023-02-16T20:14:45.537Z,13.16
2023-02-16T20:17:11.801Z,13.42
2023-02-16T20:19:38.059Z,13.42
2023-02-16T20:22:04.375Z,13.45
2023-02-16T20:24:30.673Z,13.34
2023-02-16T20:26:56.982Z,13.86
2023-02-16T20:29:23.239Z,14.42
2023-02-16T20:31:49.604Z,14.10
2023-02-16T20:34:15.967Z,14.16
2023-02-16T20:36:42.237Z,14.41
2023-02-16T20:39:08.522Z,14.53
2023-02-16T20:41:34.790Z,15.75
2023-02-16T20:44:01.071Z,15.45
2023-02-16T20:46:27.404Z,15.89
2023-02-16T20:48:53.666Z,16.01
2023-02-16T20:51:19.923Z,15.89
2023-02-16T20:53:46.199Z,14.41
2023-02-16T20:56:12.453Z,16.63
2023-02-16T20:58:38.719Z,16.23
2023-02-16T21:01:05.046Z,17.15
2023-02-16T21:03:31.359Z,16.79
2023-02-16T21:05:57.636Z,17.89
2023-02-16T21:08:23.920Z,17.37
2023-02-16T21:10:50.205Z,16.80
2023-02-16T21:13:16.484Z,17.16
2023-02-16T21:15:42.746Z,16.58
2023-02-16T21:18:09.006Z,16.35
2023-02-16T21:20:35.270Z,16.23
2023-02-16T21:23:01.537Z,15.67
2023-02-16T21:25:27.809Z,15.22
2023-02-16T21:27:54.066Z,15.53
2023-02-16T21:30:20.352Z,15.47
2023-02-16T21:32:46.694Z,15.38
2023-02-16T21:35:12.941Z,15.23
2023-02-16T21:37:39.195Z,15.27
2023-02-16T21:40:05.494Z,15.00
2023-02-16T21:42:31.762Z,15.50
2023-02-16T21:44:58.033Z,15.27
2023-02-16T21:47:24.303Z,16.20
2023-02-16T21:49:50.578Z,15.18
2023-02-16T21:52:17.855Z,15.51
2023-02-16T21:54:44.123Z,15.18
2023-02-16T21:57:10.373Z,14.51
2023-02-16T21:59:36.654Z,14.73
2023-02-16T22:02:02.922Z,14.95
2023-02-16T22:04:29.192Z,14.56
2023-02-16T22:06:55.544Z,14.60
2023-02-16T22:09:21.816Z,14.69
2023-02-16T22:11:48.094Z,14.93
2023-02-16T22:14:14.388Z,14.34
2023-02-16T22:16:40.687Z,15.31
2023-02-16T22:19:07.454Z,15.12
2023-02-16T22:21:33.826Z,15.03
2023-02-16T22:24:00.108Z,15.19
2023-02-16T22:26:26.379Z,16.13
2023-02-16T22:28:52.655Z,16.02
2023-02-16T22:31:19.142Z,15.93
2023-02-16T22:33:45.465Z,15.73
2023-02-16T22:36:11.770Z,15.62
2023-02-16T22:38:38.024Z,15.75
2023-02-16T22:41:04.290Z,16.06
2023-02-16T22:43:30.543Z,16.69
2023-02-16T22:45:56.882Z,16.26
2023-02-16T22:48:23.162Z,16.55
2023-02-16T22:50:49.587Z,16.93
2023-02-16T22:53:15.887Z,17.04
2023-02-16T22:55:42.146Z,16.85
2023-02-16T22:58:08.410Z,16.36
2023-02-16T23:00:34.680Z,17.02
2023-02-16T23:03:00.930Z,16.75
2023-02-16T23:05:27.192Z,16.98
2023-02-16T23:07:53.457Z,16.90
2023-02-16T23:10:19.709Z,16.89
2023-02-16T23:12:45.970Z,16.80
2023-02-16T23:15:12.221Z,16.86
2023-02-16T23:17:38.490Z,17.28
2023-02-16T23:20:04.773Z,16.82
2023-02-16T23:22:31.052Z,17.11
2023-02-16T23:24:57.326Z,17.22
2023-02-16T23:27:23.605Z,17.19
2023-02-16T23:29:49.854Z,17.97
2023-02-16T23:32:16.155Z,17.71
2023-02-16T23:34:42.428Z,18.15
2023-02-16T23:37:08.689Z,18.33
2023-02-16T23:39:34.955Z,17.97
2023-02-16T23:42:01.207Z,18.47
2023-02-16T23:44:27.492Z,17.82
2023-02-16T23:46:53.744Z,17.43
2023-02-16T23:49:20.061Z,17.29
2023-02-16T23:51:46.322Z,17.20
2023-02-16T23:54:12.589Z,17.76
2023-02-16T23:56:38.882Z,16.21
2023-02-16T23:59:05.141Z,16.13
